sensor_id;sensor_type;location;lat;lon;timestamp;temperature;humidity
10051;DHT22;5065;46.942;7.432;2022-10-03T00:04:08;16.20;99.90
10051;DHT22;5065;46.942;7.432;2022-10-03T00:06:43;16.10;99.90
10051;DHT22;5065;46.942;7.432;2022-10-03T00:09:26;16.20;99.90
10051;DHT22;5065;46.942;7.432;2022-10-03T00:12:07;16.20;99.90
10051;DHT22;5065;46.942;7.432;2022-10-03T00:14:47;16.10;99.90
10051;DHT22;5065;46.942;7.432;2022-10-03T00:17:22;16.00;99.90
10051;DHT22;5065;46.942;7.432;2022-10-03T00:19:58;16.10;99.90
10051;DHT22;5065;46.942;7.432;2022-10-03T00:22:35;16.10;99.90
10051;DHT22;5065;46.942;7.432;2022-10-03T00:25:18;16.10;99.90
10051;DHT22;5065;46.942;7.432;2022-10-03T00:27:54;16.10;99.90
10051;DHT22;5065;46.942;7.432;2022-10-03T00:30:45;16.10;99.90
10051;DHT22;5065;46.942;7.432;2022-10-03T00:33:21;16.10;99.90
10051;DHT22;5065;46.942;7.432;2022-10-03T00:36:00;16.10;99.90
10051;DHT22;5065;46.942;7.432;2022-10-03T00:38:50;16.10;99.90
10051;DHT22;5065;46.942;7.432;2022-10-03T00:41:44;16.00;99.90
10051;DHT22;5065;46.942;7.432;2022-10-03T00:47:41;15.90;99.90
10051;DHT22;5065;46.942;7.432;2022-10-03T00:50:29;15.80;99.90
10051;DHT22;5065;46.942;7.432;2022-10-03T00:53:20;15.80;99.90
10051;DHT22;5065;46.942;7.432;2022-10-03T00:56:02;15.80;99.90
10051;DHT22;5065;46.942;7.432;2022-10-03T00:58:57;15.80;99.90
10051;DHT22;5065;46.942;7.432;2022-10-03T01:01:35;15.80;99.90
10051;DHT22;5065;46.942;7.432;2022-10-03T01:04:29;15.90;99.90
10051;DHT22;5065;46.942;7.432;2022-10-03T01:07:08;15.90;99.90
10051;DHT22;5065;46.942;7.432;2022-10-03T01:09:50;15.90;99.90
10051;DHT22;5065;46.942;7.432;2022-10-03T01:12:34;15.90;99.90
10051;DHT22;5065;46.942;7.432;2022-10-03T01:15:13;15.90;99.90
10051;DHT22;5065;46.942;7.432;2022-10-03T01:17:54;15.90;99.90
10051;DHT22;5065;46.942;7.432;2022-10-03T01:20:32;15.90;99.90
10051;DHT22;5065;46.942;7.432;2022-10-03T01:23:24;15.90;99.90
10051;DHT22;5065;46.942;7.432;2022-10-03T01:26:07;15.90;99.90
10051;DHT22;5065;46.942;7.432;2022-10-03T01:28:46;15.80;99.90
10051;DHT22;5065;46.942;7.432;2022-10-03T01:31:43;15.80;99.90
10051;DHT22;5065;46.942;7.432;2022-10-03T01:34:20;15.90;99.90
10051;DHT22;5065;46.942;7.432;2022-10-03T01:36:59;15.80;99.90
10051;DHT22;5065;46.942;7.432;2022-10-03T01:39:36;15.80;99.90
10051;DHT22;5065;46.942;7.432;2022-10-03T01:42:11;15.80;99.90
10051;DHT22;5065;46.942;7.432;2022-10-03T01:45:00;15.90;99.90
10051;DHT22;5065;46.942;7.432;2022-10-03T01:47:33;15.80;99.90
10051;DHT22;5065;46.942;7.432;2022-10-03T01:50:13;15.80;99.90
10051;DHT22;5065;46.942;7.432;2022-10-03T01:52:50;15.80;99.90
10051;DHT22;5065;46.942;7.432;2022-10-03T01:55:22;16.00;99.90
10051;DHT22;5065;46.942;7.432;2022-10-03T01:57:56;15.80;99.90
10051;DHT22;5065;46.942;7.432;2022-10-03T02:00:33;15.80;99.90
10051;DHT22;5065;46.942;7.432;2022-10-03T02:03:08;15.80;99.90
10051;DHT22;5065;46.942;7.432;2022-10-03T02:05:52;15.70;99.90
10051;DHT22;5065;46.942;7.432;2022-10-03T02:08:29;15.70;99.90
10051;DHT22;5065;46.942;7.432;2022-10-03T02:11:01;15.70;99.90
10051;DHT22;5065;46.942;7.432;2022-10-03T02:13:40;15.70;99.90
10051;DHT22;5065;46.942;7.432;2022-10-03T02:16:17;15.70;99.90
10051;DHT22;5065;46.942;7.432;2022-10-03T02:18:50;15.70;99.90
10051;DHT22;5065;46.942;7.432;2022-10-03T02:21:22;15.70;99.90
10051;DHT22;5065;46.942;7.432;2022-10-03T02:24:07;15.70;99.90
10051;DHT22;5065;46.942;7.432;2022-10-03T02:27:19;15.60;99.90
10051;DHT22;5065;46.942;7.432;2022-10-03T02:30:16;15.70;99.90
10051;DHT22;5065;46.942;7.432;2022-10-03T02:33:28;15.70;99.90
10051;DHT22;5065;46.942;7.432;2022-10-03T02:36:38;15.70;99.90
10051;DHT22;5065;46.942;7.432;2022-10-03T02:39:29;15.70;99.90
10051;DHT22;5065;46.942;7.432;2022-10-03T02:42:31;15.60;99.90
10051;DHT22;5065;46.942;7.432;2022-10-03T02:51:36;15.60;99.90
10051;DHT22;5065;46.942;7.432;2022-10-03T02:57:57;15.60;99.90
10051;DHT22;5065;46.942;7.432;2022-10-03T03:01:01;15.50;99.90
10051;DHT22;5065;46.942;7.432;2022-10-03T03:03:59;15.50;99.90
10051;DHT22;5065;46.942;7.432;2022-10-03T03:06:41;15.50;99.90
10051;DHT22;5065;46.942;7.432;2022-10-03T03:09:35;15.50;99.90
10051;DHT22;5065;46.942;7.432;2022-10-03T03:15:42;15.50;99.90
10051;DHT22;5065;46.942;7.432;2022-10-03T03:18:22;15.50;99.90
10051;DHT22;5065;46.942;7.432;2022-10-03T03:21:08;15.50;99.90
10051;DHT22;5065;46.942;7.432;2022-10-03T03:23:56;15.50;99.90
10051;DHT22;5065;46.942;7.432;2022-10-03T03:26:45;15.50;99.90
10051;DHT22;5065;46.942;7.432;2022-10-03T03:29:23;15.50;99.90
10051;DHT22;5065;46.942;7.432;2022-10-03T03:32:01;15.50;99.90
10051;DHT22;5065;46.942;7.432;2022-10-03T03:34:35;15.50;99.90
10051;DHT22;5065;46.942;7.432;2022-10-03T03:37:10;15.50;99.90
10051;DHT22;5065;46.942;7.432;2022-10-03T03:39:53;15.50;99.90
10051;DHT22;5065;46.942;7.432;2022-10-03T03:42:48;15.50;99.90
10051;DHT22;5065;46.942;7.432;2022-10-03T03:45:34;15.50;99.90
10051;DHT22;5065;46.942;7.432;2022-10-03T03:51:06;15.50;99.90
10051;DHT22;5065;46.942;7.432;2022-10-03T03:54:01;15.50;99.90
10051;DHT22;5065;46.942;7.432;2022-10-03T03:56:45;15.50;99.90
10051;DHT22;5065;46.942;7.432;2022-10-03T03:59:25;15.50;99.90
10051;DHT22;5065;46.942;7.432;2022-10-03T04:02:10;15.50;99.90
10051;DHT22;5065;46.942;7.432;2022-10-03T04:04:51;15.40;99.90
10051;DHT22;5065;46.942;7.432;2022-10-03T04:07:33;15.40;99.90
10051;DHT22;5065;46.942;7.432;2022-10-03T04:10:17;15.40;99.90
10051;DHT22;5065;46.942;7.432;2022-10-03T04:13:13;15.40;99.90
10051;DHT22;5065;46.942;7.432;2022-10-03T04:16:04;15.40;99.90
10051;DHT22;5065;46.942;7.432;2022-10-03T04:18:55;15.40;99.90
10051;DHT22;5065;46.942;7.432;2022-10-03T04:21:45;15.40;99.90
10051;DHT22;5065;46.942;7.432;2022-10-03T04:27:36;15.40;99.90
10051;DHT22;5065;46.942;7.432;2022-10-03T04:30:09;15.40;99.90
10051;DHT22;5065;46.942;7.432;2022-10-03T04:32:58;15.40;99.90
10051;DHT22;5065;46.942;7.432;2022-10-03T04:38:38;15.30;99.90
10051;DHT22;5065;46.942;7.432;2022-10-03T04:41:19;15.30;99.90
10051;DHT22;5065;46.942;7.432;2022-10-03T04:43:54;15.30;99.90
10051;DHT22;5065;46.942;7.432;2022-10-03T04:46:28;15.20;99.90
10051;DHT22;5065;46.942;7.432;2022-10-03T04:49:01;15.30;99.90
10051;DHT22;5065;46.942;7.432;2022-10-03T04:51:43;15.20;99.90
10051;DHT22;5065;46.942;7.432;2022-10-03T04:54:19;15.20;99.90
10051;DHT22;5065;46.942;7.432;2022-10-03T04:56:53;15.20;99.90
10051;DHT22;5065;46.942;7.432;2022-10-03T04:59:39;15.20;99.90
10051;DHT22;5065;46.942;7.432;2022-10-03T05:02:17;15.20;99.90
10051;DHT22;5065;46.942;7.432;2022-10-03T05:05:07;15.20;99.90
10051;DHT22;5065;46.942;7.432;2022-10-03T05:07:47;15.20;99.90
10051;DHT22;5065;46.942;7.432;2022-10-03T05:10:25;15.20;99.90
10051;DHT22;5065;46.942;7.432;2022-10-03T05:13:00;15.20;99.90
10051;DHT22;5065;46.942;7.432;2022-10-03T05:15:45;15.20;99.90
10051;DHT22;5065;46.942;7.432;2022-10-03T05:18:19;15.20;99.90
10051;DHT22;5065;46.942;7.432;2022-10-03T05:20:52;15.30;99.90
10051;DHT22;5065;46.942;7.432;2022-10-03T05:23:29;15.20;99.90
10051;DHT22;5065;46.942;7.432;2022-10-03T05:26:06;15.20;99.90
10051;DHT22;5065;46.942;7.432;2022-10-03T05:28:43;15.20;99.90
10051;DHT22;5065;46.942;7.432;2022-10-03T05:31:25;15.10;99.90
10051;DHT22;5065;46.942;7.432;2022-10-03T05:34:03;15.20;99.90
10051;DHT22;5065;46.942;7.432;2022-10-03T05:36:49;15.20;99.90
10051;DHT22;5065;46.942;7.432;2022-10-03T05:39:29;15.30;99.90
10051;DHT22;5065;46.942;7.432;2022-10-03T05:42:18;15.10;99.90
10051;DHT22;5065;46.942;7.432;2022-10-03T05:45:00;15.10;99.90
10051;DHT22;5065;46.942;7.432;2022-10-03T05:47:32;15.20;99.90
10051;DHT22;5065;46.942;7.432;2022-10-03T05:53:26;15.20;99.90
10051;DHT22;5065;46.942;7.432;2022-10-03T05:56:04;15.10;99.90
10051;DHT22;5065;46.942;7.432;2022-10-03T05:58:51;15.20;99.90
10051;DHT22;5065;46.942;7.432;2022-10-03T06:01:50;15.10;99.90
10051;DHT22;5065;46.942;7.432;2022-10-03T06:04:51;15.10;99.90
10051;DHT22;5065;46.942;7.432;2022-10-03T06:07:28;15.10;99.90
10051;DHT22;5065;46.942;7.432;2022-10-03T06:13:09;15.10;99.90
10051;DHT22;5065;46.942;7.432;2022-10-03T06:15:52;15.10;99.90
10051;DHT22;5065;46.942;7.432;2022-10-03T06:18:40;15.10;99.90
10051;DHT22;5065;46.942;7.432;2022-10-03T06:21:47;15.10;99.90
10051;DHT22;5065;46.942;7.432;2022-10-03T06:24:50;15.10;99.90
10051;DHT22;5065;46.942;7.432;2022-10-03T06:28:02;15.20;99.90
10051;DHT22;5065;46.942;7.432;2022-10-03T06:30:48;15.20;99.90
10051;DHT22;5065;46.942;7.432;2022-10-03T06:36:56;15.30;99.90
10051;DHT22;5065;46.942;7.432;2022-10-03T06:45:59;15.40;99.90
10051;DHT22;5065;46.942;7.432;2022-10-03T06:49:04;15.40;99.90
10051;DHT22;5065;46.942;7.432;2022-10-03T06:55:15;15.30;99.90
10051;DHT22;5065;46.942;7.432;2022-10-03T07:01:01;15.30;99.90
10051;DHT22;5065;46.942;7.432;2022-10-03T07:04:03;15.30;99.90
10051;DHT22;5065;46.942;7.432;2022-10-03T07:06:54;15.30;99.90
10051;DHT22;5065;46.942;7.432;2022-10-03T07:10:03;15.20;99.90
10051;DHT22;5065;46.942;7.432;2022-10-03T07:12:52;15.20;99.90
10051;DHT22;5065;46.942;7.432;2022-10-03T07:15:46;15.30;99.90
10051;DHT22;5065;46.942;7.432;2022-10-03T07:18:50;15.30;99.90
10051;DHT22;5065;46.942;7.432;2022-10-03T07:24:59;15.30;99.90
10051;DHT22;5065;46.942;7.432;2022-10-03T07:27:44;15.30;99.90
10051;DHT22;5065;46.942;7.432;2022-10-03T07:30:16;15.30;99.90
10051;DHT22;5065;46.942;7.432;2022-10-03T07:35:49;15.40;99.90
10051;DHT22;5065;46.942;7.432;2022-10-03T07:38:52;15.50;99.90
10051;DHT22;5065;46.942;7.432;2022-10-03T07:44:51;15.40;99.90
10051;DHT22;5065;46.942;7.432;2022-10-03T07:50:56;15.50;99.90
10051;DHT22;5065;46.942;7.432;2022-10-03T07:57:00;15.50;99.90
10051;DHT22;5065;46.942;7.432;2022-10-03T07:59:54;15.60;99.90
10051;DHT22;5065;46.942;7.432;2022-10-03T08:05:44;15.60;99.90
10051;DHT22;5065;46.942;7.432;2022-10-03T08:08:32;15.60;99.90
10051;DHT22;5065;46.942;7.432;2022-10-03T08:11:35;15.60;99.90
10051;DHT22;5065;46.942;7.432;2022-10-03T08:14:18;15.60;99.90
10051;DHT22;5065;46.942;7.432;2022-10-03T08:20:09;15.70;99.90
10051;DHT22;5065;46.942;7.432;2022-10-03T08:22:53;15.70;99.90
10051;DHT22;5065;46.942;7.432;2022-10-03T08:25:32;15.70;99.90
10051;DHT22;5065;46.942;7.432;2022-10-03T08:28:36;15.80;99.90
10051;DHT22;5065;46.942;7.432;2022-10-03T08:31:26;15.80;99.90
10051;DHT22;5065;46.942;7.432;2022-10-03T08:40:32;15.80;99.90
10051;DHT22;5065;46.942;7.432;2022-10-03T08:43:38;15.90;99.90
10051;DHT22;5065;46.942;7.432;2022-10-03T08:46:34;15.90;99.90
10051;DHT22;5065;46.942;7.432;2022-10-03T08:49:25;16.00;99.90
10051;DHT22;5065;46.942;7.432;2022-10-03T08:52:06;16.00;99.90
10051;DHT22;5065;46.942;7.432;2022-10-03T08:55:01;16.00;99.90
10051;DHT22;5065;46.942;7.432;2022-10-03T08:58:03;16.00;99.90
10051;DHT22;5065;46.942;7.432;2022-10-03T09:00:48;16.00;99.90
10051;DHT22;5065;46.942;7.432;2022-10-03T09:03:54;16.00;99.90
10051;DHT22;5065;46.942;7.432;2022-10-03T09:09:57;16.20;99.90
10051;DHT22;5065;46.942;7.432;2022-10-03T09:12:55;16.30;99.90
10051;DHT22;5065;46.942;7.432;2022-10-03T09:16:09;16.50;99.90
10051;DHT22;5065;46.942;7.432;2022-10-03T09:19:03;16.60;99.90
10051;DHT22;5065;46.942;7.432;2022-10-03T09:22:00;16.70;99.90
10051;DHT22;5065;46.942;7.432;2022-10-03T09:31:15;16.90;99.90
10051;DHT22;5065;46.942;7.432;2022-10-03T09:34:18;17.00;99.90
10051;DHT22;5065;46.942;7.432;2022-10-03T09:37:23;17.10;99.90
10051;DHT22;5065;46.942;7.432;2022-10-03T09:43:13;17.30;99.90
10051;DHT22;5065;46.942;7.432;2022-10-03T09:51:55;17.70;99.90
10051;DHT22;5065;46.942;7.432;2022-10-03T09:54:59;17.70;99.90
10051;DHT22;5065;46.942;7.432;2022-10-03T10:01:01;18.00;99.90
10051;DHT22;5065;46.942;7.432;2022-10-03T10:04:18;18.10;99.90
10051;DHT22;5065;46.942;7.432;2022-10-03T10:07:26;18.20;99.90
10051;DHT22;5065;46.942;7.432;2022-10-03T10:13:13;18.30;99.90
10051;DHT22;5065;46.942;7.432;2022-10-03T10:16:01;18.40;99.90
10051;DHT22;5065;46.942;7.432;2022-10-03T10:18:51;18.40;99.90
10051;DHT22;5065;46.942;7.432;2022-10-03T10:21:58;18.40;99.90
10051;DHT22;5065;46.942;7.432;2022-10-03T10:27:57;18.40;99.90
10051;DHT22;5065;46.942;7.432;2022-10-03T10:31:01;18.40;99.90
10051;DHT22;5065;46.942;7.432;2022-10-03T10:46:45;18.40;99.90
10051;DHT22;5065;46.942;7.432;2022-10-03T10:52:45;18.50;99.90
10051;DHT22;5065;46.942;7.432;2022-10-03T11:02:05;18.50;99.90
10051;DHT22;5065;46.942;7.432;2022-10-03T11:08:27;18.60;99.90
10051;DHT22;5065;46.942;7.432;2022-10-03T11:17:21;18.40;99.90
10051;DHT22;5065;46.942;7.432;2022-10-03T11:36:31;18.40;99.90
10051;DHT22;5065;46.942;7.432;2022-10-03T11:39:04;18.50;99.90
10051;DHT22;5065;46.942;7.432;2022-10-03T11:41:39;18.50;99.90
10051;DHT22;5065;46.942;7.432;2022-10-03T11:44:20;18.50;99.90
10051;DHT22;5065;46.942;7.432;2022-10-03T11:47:10;18.50;99.90
10051;DHT22;5065;46.942;7.432;2022-10-03T11:50:12;18.50;99.90
10051;DHT22;5065;46.942;7.432;2022-10-03T11:53:00;18.40;99.90
10051;DHT22;5065;46.942;7.432;2022-10-03T11:55:36;18.40;99.90
10051;DHT22;5065;46.942;7.432;2022-10-03T11:58:18;18.40;99.90
10051;DHT22;5065;46.942;7.432;2022-10-03T12:00:57;18.40;99.90
10051;DHT22;5065;46.942;7.432;2022-10-03T12:03:38;18.40;99.90
10051;DHT22;5065;46.942;7.432;2022-10-03T12:06:12;18.40;99.90
10051;DHT22;5065;46.942;7.432;2022-10-03T12:09:11;18.40;99.90
10051;DHT22;5065;46.942;7.432;2022-10-03T12:11:47;18.50;99.90
10051;DHT22;5065;46.942;7.432;2022-10-03T12:14:25;18.40;99.90
10051;DHT22;5065;46.942;7.432;2022-10-03T12:16:56;18.40;99.90
10051;DHT22;5065;46.942;7.432;2022-10-03T12:19:29;18.40;99.90
10051;DHT22;5065;46.942;7.432;2022-10-03T12:21:59;18.30;99.90
10051;DHT22;5065;46.942;7.432;2022-10-03T12:24:29;18.30;99.90
10051;DHT22;5065;46.942;7.432;2022-10-03T12:26:58;18.20;99.90
10051;DHT22;5065;46.942;7.432;2022-10-03T12:29:28;18.10;99.90
10051;DHT22;5065;46.942;7.432;2022-10-03T12:34:48;17.90;99.90
10051;DHT22;5065;46.942;7.432;2022-10-03T12:37:41;17.90;99.90
10051;DHT22;5065;46.942;7.432;2022-10-03T12:40:20;17.90;99.90
10051;DHT22;5065;46.942;7.432;2022-10-03T12:43:00;17.80;99.90
10051;DHT22;5065;46.942;7.432;2022-10-03T12:45:31;17.80;99.90
10051;DHT22;5065;46.942;7.432;2022-10-03T12:48:20;17.70;99.90
10051;DHT22;5065;46.942;7.432;2022-10-03T12:50:54;17.70;99.90
10051;DHT22;5065;46.942;7.432;2022-10-03T12:53:37;17.80;99.90
10051;DHT22;5065;46.942;7.432;2022-10-03T12:56:15;17.80;99.90
10051;DHT22;5065;46.942;7.432;2022-10-03T12:58:54;17.80;99.90
10051;DHT22;5065;46.942;7.432;2022-10-03T13:01:34;17.80;99.90
10051;DHT22;5065;46.942;7.432;2022-10-03T13:04:16;17.90;99.90
10051;DHT22;5065;46.942;7.432;2022-10-03T13:07:12;17.90;99.90
10051;DHT22;5065;46.942;7.432;2022-10-03T13:10:07;17.90;99.90
10051;DHT22;5065;46.942;7.432;2022-10-03T13:12:42;17.80;99.90
10051;DHT22;5065;46.942;7.432;2022-10-03T13:18:31;17.90;99.90
10051;DHT22;5065;46.942;7.432;2022-10-03T13:21:04;18.00;99.90
10051;DHT22;5065;46.942;7.432;2022-10-03T13:23:43;18.00;99.90
10051;DHT22;5065;46.942;7.432;2022-10-03T13:26:17;18.00;99.90
10051;DHT22;5065;46.942;7.432;2022-10-03T13:29:09;18.00;99.90
10051;DHT22;5065;46.942;7.432;2022-10-03T13:31:47;18.00;99.90
10051;DHT22;5065;46.942;7.432;2022-10-03T13:34:22;18.00;99.90
10051;DHT22;5065;46.942;7.432;2022-10-03T13:36:54;18.00;99.90
10051;DHT22;5065;46.942;7.432;2022-10-03T13:39:24;18.00;99.90
10051;DHT22;5065;46.942;7.432;2022-10-03T13:42:07;18.00;99.90
10051;DHT22;5065;46.942;7.432;2022-10-03T13:44:39;18.00;99.90
10051;DHT22;5065;46.942;7.432;2022-10-03T13:47:28;17.90;99.90
10051;DHT22;5065;46.942;7.432;2022-10-03T13:49:59;17.90;99.90
10051;DHT22;5065;46.942;7.432;2022-10-03T13:52:35;17.90;99.90
10051;DHT22;5065;46.942;7.432;2022-10-03T13:55:17;17.90;99.90
10051;DHT22;5065;46.942;7.432;2022-10-03T13:58:00;17.90;99.90
10051;DHT22;5065;46.942;7.432;2022-10-03T14:00:39;17.80;99.90
10051;DHT22;5065;46.942;7.432;2022-10-03T14:03:20;17.70;99.90
10051;DHT22;5065;46.942;7.432;2022-10-03T14:06:09;17.70;99.90
10051;DHT22;5065;46.942;7.432;2022-10-03T14:09:18;17.70;99.90
10051;DHT22;5065;46.942;7.432;2022-10-03T14:11:55;17.60;99.90
10051;DHT22;5065;46.942;7.432;2022-10-03T14:14:46;17.60;99.90
10051;DHT22;5065;46.942;7.432;2022-10-03T14:17:20;17.60;99.90
10051;DHT22;5065;46.942;7.432;2022-10-03T14:20:03;17.50;99.90
10051;DHT22;5065;46.942;7.432;2022-10-03T14:22:47;17.50;99.90
10051;DHT22;5065;46.942;7.432;2022-10-03T14:25:21;17.50;99.90
10051;DHT22;5065;46.942;7.432;2022-10-03T14:27:59;17.60;99.90
10051;DHT22;5065;46.942;7.432;2022-10-03T14:30:35;17.60;99.90
10051;DHT22;5065;46.942;7.432;2022-10-03T14:33:19;17.60;99.90
10051;DHT22;5065;46.942;7.432;2022-10-03T14:36:07;17.60;99.90
10051;DHT22;5065;46.942;7.432;2022-10-03T14:38:50;17.50;99.90
10051;DHT22;5065;46.942;7.432;2022-10-03T14:41:43;17.40;99.90
10051;DHT22;5065;46.942;7.432;2022-10-03T14:44:14;17.40;99.90
10051;DHT22;5065;46.942;7.432;2022-10-03T14:46:49;17.40;99.90
10051;DHT22;5065;46.942;7.432;2022-10-03T14:49:19;17.40;99.90
10051;DHT22;5065;46.942;7.432;2022-10-03T14:51:51;17.40;99.90
10051;DHT22;5065;46.942;7.432;2022-10-03T14:54:24;17.40;99.90
10051;DHT22;5065;46.942;7.432;2022-10-03T14:56:52;17.40;99.90
10051;DHT22;5065;46.942;7.432;2022-10-03T14:59:24;17.50;99.90
10051;DHT22;5065;46.942;7.432;2022-10-03T15:01:56;17.50;99.90
10051;DHT22;5065;46.942;7.432;2022-10-03T15:04:30;17.40;99.90
10051;DHT22;5065;46.942;7.432;2022-10-03T15:06:58;17.40;99.90
10051;DHT22;5065;46.942;7.432;2022-10-03T15:09:30;17.40;99.90
10051;DHT22;5065;46.942;7.432;2022-10-03T15:12:03;17.30;99.90
10051;DHT22;5065;46.942;7.432;2022-10-03T15:14:35;17.30;99.90
10051;DHT22;5065;46.942;7.432;2022-10-03T15:17:18;17.20;99.90
10051;DHT22;5065;46.942;7.432;2022-10-03T15:19:50;17.10;99.90
10051;DHT22;5065;46.942;7.432;2022-10-03T15:22:29;17.10;99.90
10051;DHT22;5065;46.942;7.432;2022-10-03T15:25:05;17.10;99.90
10051;DHT22;5065;46.942;7.432;2022-10-03T15:27:34;17.10;99.90
10051;DHT22;5065;46.942;7.432;2022-10-03T15:30:03;17.10;99.90
10051;DHT22;5065;46.942;7.432;2022-10-03T15:32:40;17.10;99.90
10051;DHT22;5065;46.942;7.432;2022-10-03T15:35:16;17.20;99.90
10051;DHT22;5065;46.942;7.432;2022-10-03T15:37:44;17.20;99.90
10051;DHT22;5065;46.942;7.432;2022-10-03T15:40:20;17.20;99.90
10051;DHT22;5065;46.942;7.432;2022-10-03T15:42:50;17.00;99.90
10051;DHT22;5065;46.942;7.432;2022-10-03T15:45:24;17.00;99.90
10051;DHT22;5065;46.942;7.432;2022-10-03T15:47:59;16.90;99.90
10051;DHT22;5065;46.942;7.432;2022-10-03T15:50:29;16.90;99.90
10051;DHT22;5065;46.942;7.432;2022-10-03T15:53:02;16.90;99.90
10051;DHT22;5065;46.942;7.432;2022-10-03T15:55:35;17.00;99.90
10051;DHT22;5065;46.942;7.432;2022-10-03T15:58:13;16.80;99.90
10051;DHT22;5065;46.942;7.432;2022-10-03T16:00:51;16.70;99.90
10051;DHT22;5065;46.942;7.432;2022-10-03T16:03:28;16.70;99.90
10051;DHT22;5065;46.942;7.432;2022-10-03T16:06:04;16.60;99.90
10051;DHT22;5065;46.942;7.432;2022-10-03T16:08:42;16.60;99.90
10051;DHT22;5065;46.942;7.432;2022-10-03T16:11:17;16.70;99.90
10051;DHT22;5065;46.942;7.432;2022-10-03T16:13:53;16.70;99.90
10051;DHT22;5065;46.942;7.432;2022-10-03T16:16:27;16.70;99.90
10051;DHT22;5065;46.942;7.432;2022-10-03T16:19:16;16.70;99.90
10051;DHT22;5065;46.942;7.432;2022-10-03T16:21:46;16.70;99.90
10051;DHT22;5065;46.942;7.432;2022-10-03T16:24:23;16.70;99.90
10051;DHT22;5065;46.942;7.432;2022-10-03T16:26:55;16.70;99.90
10051;DHT22;5065;46.942;7.432;2022-10-03T16:29:27;16.70;99.90
10051;DHT22;5065;46.942;7.432;2022-10-03T16:32:02;16.80;99.90
10051;DHT22;5065;46.942;7.432;2022-10-03T16:34:33;16.90;99.90
10051;DHT22;5065;46.942;7.432;2022-10-03T16:37:03;16.70;99.90
10051;DHT22;5065;46.942;7.432;2022-10-03T16:39:34;16.70;99.90
10051;DHT22;5065;46.942;7.432;2022-10-03T16:42:10;16.70;99.90
10051;DHT22;5065;46.942;7.432;2022-10-03T16:44:46;16.80;99.90
10051;DHT22;5065;46.942;7.432;2022-10-03T16:47:15;16.80;99.90
10051;DHT22;5065;46.942;7.432;2022-10-03T16:49:48;16.80;99.90
10051;DHT22;5065;46.942;7.432;2022-10-03T16:52:36;16.90;99.90
10051;DHT22;5065;46.942;7.432;2022-10-03T16:55:06;16.80;99.90
10051;DHT22;5065;46.942;7.432;2022-10-03T16:57:42;16.70;99.90
10051;DHT22;5065;46.942;7.432;2022-10-03T17:00:16;16.60;99.90
10051;DHT22;5065;46.942;7.432;2022-10-03T17:02:46;16.70;99.90
10051;DHT22;5065;46.942;7.432;2022-10-03T17:05:16;16.80;99.90
10051;DHT22;5065;46.942;7.432;2022-10-03T17:07:47;16.60;99.90
10051;DHT22;5065;46.942;7.432;2022-10-03T17:10:34;16.70;99.90
10051;DHT22;5065;46.942;7.432;2022-10-03T17:13:10;16.70;99.90
10051;DHT22;5065;46.942;7.432;2022-10-03T17:15:45;16.70;99.90
10051;DHT22;5065;46.942;7.432;2022-10-03T17:18:24;16.70;99.90
10051;DHT22;5065;46.942;7.432;2022-10-03T17:20:59;16.60;99.90
10051;DHT22;5065;46.942;7.432;2022-10-03T17:23:33;16.60;99.90
10051;DHT22;5065;46.942;7.432;2022-10-03T17:26:05;16.50;99.90
10051;DHT22;5065;46.942;7.432;2022-10-03T17:28:39;16.50;99.90
10051;DHT22;5065;46.942;7.432;2022-10-03T17:31:26;16.50;99.90
10051;DHT22;5065;46.942;7.432;2022-10-03T17:34:00;16.50;99.90
10051;DHT22;5065;46.942;7.432;2022-10-03T17:36:54;16.50;99.90
10051;DHT22;5065;46.942;7.432;2022-10-03T17:39:40;16.50;99.90
10051;DHT22;5065;46.942;7.432;2022-10-03T17:42:17;16.50;99.90
10051;DHT22;5065;46.942;7.432;2022-10-03T17:44:55;16.40;99.90
10051;DHT22;5065;46.942;7.432;2022-10-03T17:47:31;16.40;99.90
10051;DHT22;5065;46.942;7.432;2022-10-03T17:50:04;16.40;99.90
10051;DHT22;5065;46.942;7.432;2022-10-03T17:52:38;16.40;99.90
10051;DHT22;5065;46.942;7.432;2022-10-03T17:55:11;16.40;99.90
10051;DHT22;5065;46.942;7.432;2022-10-03T17:57:46;16.40;99.90
10051;DHT22;5065;46.942;7.432;2022-10-03T18:00:18;16.40;99.90
10051;DHT22;5065;46.942;7.432;2022-10-03T18:02:53;16.40;99.90
10051;DHT22;5065;46.942;7.432;2022-10-03T18:05:26;16.40;99.90
10051;DHT22;5065;46.942;7.432;2022-10-03T18:08:01;16.40;99.90
10051;DHT22;5065;46.942;7.432;2022-10-03T18:10:34;16.40;99.90
10051;DHT22;5065;46.942;7.432;2022-10-03T18:13:08;16.40;99.90
10051;DHT22;5065;46.942;7.432;2022-10-03T18:16:00;16.40;99.90
10051;DHT22;5065;46.942;7.432;2022-10-03T18:18:59;16.40;99.90
10051;DHT22;5065;46.942;7.432;2022-10-03T18:21:43;16.40;99.90
10051;DHT22;5065;46.942;7.432;2022-10-03T18:24:22;16.40;99.90
10051;DHT22;5065;46.942;7.432;2022-10-03T18:27:00;16.20;99.90
10051;DHT22;5065;46.942;7.432;2022-10-03T18:29:32;16.20;99.90
10051;DHT22;5065;46.942;7.432;2022-10-03T18:32:09;16.30;99.90
10051;DHT22;5065;46.942;7.432;2022-10-03T18:34:43;16.30;99.90
10051;DHT22;5065;46.942;7.432;2022-10-03T18:40:33;16.20;99.90
10051;DHT22;5065;46.942;7.432;2022-10-03T18:43:03;16.20;99.90
10051;DHT22;5065;46.942;7.432;2022-10-03T18:45:36;16.20;99.90
10051;DHT22;5065;46.942;7.432;2022-10-03T18:48:11;16.20;99.90
10051;DHT22;5065;46.942;7.432;2022-10-03T18:50:53;16.20;99.90
10051;DHT22;5065;46.942;7.432;2022-10-03T18:53:30;16.20;99.90
10051;DHT22;5065;46.942;7.432;2022-10-03T18:56:02;16.20;99.90
10051;DHT22;5065;46.942;7.432;2022-10-03T18:58:32;16.20;99.90
10051;DHT22;5065;46.942;7.432;2022-10-03T19:01:04;16.20;99.90
10051;DHT22;5065;46.942;7.432;2022-10-03T19:03:34;16.20;99.90
10051;DHT22;5065;46.942;7.432;2022-10-03T19:06:05;16.20;99.90
10051;DHT22;5065;46.942;7.432;2022-10-03T19:08:37;16.20;99.90
10051;DHT22;5065;46.942;7.432;2022-10-03T19:11:15;16.30;99.90
10051;DHT22;5065;46.942;7.432;2022-10-03T19:13:53;16.30;99.90
10051;DHT22;5065;46.942;7.432;2022-10-03T19:16:55;16.30;99.90
10051;DHT22;5065;46.942;7.432;2022-10-03T19:19:28;16.30;99.90
10051;DHT22;5065;46.942;7.432;2022-10-03T19:22:02;16.30;99.90
10051;DHT22;5065;46.942;7.432;2022-10-03T19:24:31;16.20;99.90
10051;DHT22;5065;46.942;7.432;2022-10-03T19:27:04;16.30;99.90
10051;DHT22;5065;46.942;7.432;2022-10-03T19:29:34;16.30;99.90
10051;DHT22;5065;46.942;7.432;2022-10-03T19:32:13;16.30;99.90
10051;DHT22;5065;46.942;7.432;2022-10-03T19:34:43;16.30;99.90
10051;DHT22;5065;46.942;7.432;2022-10-03T19:37:16;16.20;99.90
10051;DHT22;5065;46.942;7.432;2022-10-03T19:39:44;16.20;99.90
10051;DHT22;5065;46.942;7.432;2022-10-03T19:42:23;16.20;99.90
10051;DHT22;5065;46.942;7.432;2022-10-03T19:44:54;16.20;99.90
10051;DHT22;5065;46.942;7.432;2022-10-03T19:47:27;16.10;99.90
10051;DHT22;5065;46.942;7.432;2022-10-03T19:50:02;16.10;99.90
10051;DHT22;5065;46.942;7.432;2022-10-03T19:52:31;16.10;99.90
10051;DHT22;5065;46.942;7.432;2022-10-03T19:55:03;16.10;99.90
10051;DHT22;5065;46.942;7.432;2022-10-03T19:57:41;16.10;99.90
10051;DHT22;5065;46.942;7.432;2022-10-03T20:00:25;16.10;99.90
10051;DHT22;5065;46.942;7.432;2022-10-03T20:02:55;16.10;99.90